Time;durP1;ratioP1;P1;durP2;ratioP2;P2;SDS_P1;SDS_P2;PMS_P1;PMS_P2;Temp;Humidity;BMP_temperature;BMP_pressure;BME280_temperature;BME280_humidity;BME280_pressure;Samples;Min_cycle;Max_cycle;Signal;HPM_P1;HPM_P2
2024/01/15 00:00:44;;;;;;;;;;;2.20;68.00;;;;;;5052076;28;19928;-74
2024/01/15 00:03:10;;;;;;;;;;;2.20;68.00;;;;;;5050725;28;19925;-73
2024/01/15 00:05:36;;;;;;;;;;;2.20;67.90;;;;;;5034131;28;19923;-74
2024/01/15 00:08:02;;;;;;;;;;;2.30;68.10;;;;;;5050631;28;19920;-74
2024/01/15 00:10:28;;;;;;;;;;;2.30;68.00;;;;;;5051598;28;19939;-74
2024/01/15 00:12:54;;;;;;;;;;;2.20;68.90;;;;;;5052012;28;19952;-73
2024/01/15 00:15:20;;;;;;;;;;;2.20;68.60;;;;;;5050262;28;19936;-73
2024/01/15 00:17:46;;;;;;;;;;;2.20;68.30;;;;;;5052257;28;19970;-73
2024/01/15 00:20:12;;;;;;;;;;;2.20;68.10;;;;;;5049833;28;19924;-74
2024/01/15 00:22:39;;;;;;;;;;;2.20;67.90;;;;;;5033676;28;19917;-73
2024/01/15 00:25:05;;;;;;;;;;;2.20;68.10;;;;;;5051744;28;20285;-74
2024/01/15 00:27:31;;;;;;;;;;;2.20;67.70;;;;;;5033175;28;19916;-74
2024/01/15 00:29:57;;;;;;;;;;;2.20;68.40;;;;;;5052130;28;19920;-73
2024/01/15 00:32:23;;;;;;;;;;;2.20;68.70;;;;;;5049815;28;20454;-73
2024/01/15 00:34:50;;;;;;;;;;;2.10;68.80;;;;;;5052180;28;20020;-73
2024/01/15 00:37:15;;;;;;;;;;;2.10;68.90;;;;;;5050388;28;19959;-73
2024/01/15 00:39:42;;;;;;;;;;;2.20;68.70;;;;;;5051660;28;19955;-74
2024/01/15 00:42:08;;;;;;;;;;;2.20;68.60;;;;;;5049434;28;19943;-74
2024/01/15 00:44:34;;;;;;;;;;;2.20;68.90;;;;;;5049626;28;19924;-73
2024/01/15 00:46:59;;;;;;;;;;;2.20;69.60;;;;;;5050282;28;19963;-73
2024/01/15 00:49:27;;;;;;;;;;;2.20;68.70;;;;;;5050605;28;20302;-73
2024/01/15 00:51:53;;;;;;;;;;;2.20;68.40;;;;;;5049742;28;19928;-73
2024/01/15 00:54:18;;;;;;;;;;;2.30;69.10;;;;;;5051700;28;20011;-73
2024/01/15 00:56:44;;;;;;;;;;;2.30;68.80;;;;;;5049729;28;20011;-74
2024/01/15 00:59:14;;;;;;;;;;;2.30;69.00;;;;;;5046766;28;19931;-73
2024/01/15 01:01:42;;;;;;;;;;;2.30;69.00;;;;;;5048507;28;20377;-74
2024/01/15 01:04:10;;;;;;;;;;;2.30;68.80;;;;;;5050912;28;19921;-73
2024/01/15 01:06:35;;;;;;;;;;;2.30;69.00;;;;;;5050203;28;20328;-73
2024/01/15 01:09:01;;;;;;;;;;;2.30;69.50;;;;;;5049811;28;19921;-73
2024/01/15 01:11:27;;;;;;;;;;;2.30;70.00;;;;;;5049455;28;19920;-74
2024/01/15 01:13:53;;;;;;;;;;;2.30;70.30;;;;;;5049833;28;19928;-74
2024/01/15 01:16:19;;;;;;;;;;;2.30;70.40;;;;;;5049542;28;20073;-73
2024/01/15 01:18:45;;;;;;;;;;;2.40;70.20;;;;;;5051380;28;20011;-74
2024/01/15 01:21:11;;;;;;;;;;;2.40;70.00;;;;;;5050585;28;19920;-73
2024/01/15 01:23:37;;;;;;;;;;;2.40;70.30;;;;;;5051278;28;20007;-74
2024/01/15 01:26:03;;;;;;;;;;;2.40;70.40;;;;;;5042054;28;19917;-73
2024/01/15 01:28:28;;;;;;;;;;;2.40;70.60;;;;;;5049718;28;19970;-73
2024/01/15 01:30:54;;;;;;;;;;;2.40;70.20;;;;;;5049162;28;20396;-73
2024/01/15 01:33:20;;;;;;;;;;;2.40;70.30;;;;;;5049637;28;20332;-73
2024/01/15 01:35:47;;;;;;;;;;;2.50;70.40;;;;;;5049516;28;19916;-73
2024/01/15 01:38:13;;;;;;;;;;;2.50;70.10;;;;;;5049965;28;20344;-74
2024/01/15 01:40:39;;;;;;;;;;;2.50;70.00;;;;;;5050393;28;19920;-74
2024/01/15 01:43:23;;;;;;;;;;;2.50;70.60;;;;;;5049340;28;19921;-74
2024/01/15 01:45:49;;;;;;;;;;;2.60;69.80;;;;;;5050703;28;19962;-74
2024/01/15 01:48:15;;;;;;;;;;;2.60;69.80;;;;;;5033023;28;19924;-73
2024/01/15 01:50:41;;;;;;;;;;;2.70;69.80;;;;;;5049481;28;19921;-74
2024/01/15 01:53:09;;;;;;;;;;;2.60;69.20;;;;;;5050464;28;19925;-73
2024/01/15 01:55:36;;;;;;;;;;;2.70;69.90;;;;;;5051302;28;20027;-74
2024/01/15 01:58:03;;;;;;;;;;;2.70;70.10;;;;;;5035974;28;19921;-74
2024/01/15 02:00:31;;;;;;;;;;;2.70;69.80;;;;;;5054191;28;19982;-73
2024/01/15 02:02:56;;;;;;;;;;;2.70;69.60;;;;;;5053002;28;19927;-73
2024/01/15 02:05:23;;;;;;;;;;;2.70;69.60;;;;;;5053038;28;20305;-73
2024/01/15 02:07:49;;;;;;;;;;;2.70;69.30;;;;;;5036500;28;20025;-73
2024/01/15 02:10:15;;;;;;;;;;;2.70;69.40;;;;;;5043995;28;19920;-74
2024/01/15 02:12:42;;;;;;;;;;;2.70;69.50;;;;;;5053097;28;19913;-74
2024/01/15 02:15:08;;;;;;;;;;;2.70;69.40;;;;;;5053592;28;20377;-74
2024/01/15 02:17:34;;;;;;;;;;;2.70;69.60;;;;;;5053079;28;19916;-74
2024/01/15 02:20:00;;;;;;;;;;;2.70;70.10;;;;;;5036251;28;19921;-74
2024/01/15 02:22:26;;;;;;;;;;;2.60;70.60;;;;;;5051989;28;20454;-73
2024/01/15 02:24:52;;;;;;;;;;;2.60;71.00;;;;;;5052932;28;20388;-73
2024/01/15 02:27:19;;;;;;;;;;;2.50;71.40;;;;;;5052317;28;19931;-73
2024/01/15 02:29:45;;;;;;;;;;;2.50;71.40;;;;;;5053145;28;19921;-74
2024/01/15 02:32:11;;;;;;;;;;;2.50;71.10;;;;;;5052091;28;20369;-74
2024/01/15 02:34:37;;;;;;;;;;;2.50;71.00;;;;;;5052783;28;19928;-74
2024/01/15 02:37:03;;;;;;;;;;;2.60;72.10;;;;;;5053868;28;19963;-73
2024/01/15 02:39:29;;;;;;;;;;;2.60;71.00;;;;;;5054098;28;20007;-73
2024/01/15 02:41:57;;;;;;;;;;;2.60;70.90;;;;;;5053464;28;19944;-74
2024/01/15 02:44:23;;;;;;;;;;;2.60;71.00;;;;;;5052433;28;19920;-74
2024/01/15 02:46:49;;;;;;;;;;;2.70;71.00;;;;;;5053456;28;19916;-74
2024/01/15 02:49:15;;;;;;;;;;;2.70;70.90;;;;;;5053753;28;19942;-73
2024/01/15 02:51:41;;;;;;;;;;;2.70;70.70;;;;;;5051635;28;20332;-74
2024/01/15 02:54:07;;;;;;;;;;;2.80;70.70;;;;;;5053654;28;19927;-73
2024/01/15 02:56:33;;;;;;;;;;;2.80;70.60;;;;;;5052274;28;20392;-73
2024/01/15 02:58:59;;;;;;;;;;;2.80;70.50;;;;;;5053231;28;19921;-73
2024/01/15 03:01:25;;;;;;;;;;;2.80;70.50;;;;;;5052814;28;19932;-74
2024/01/15 03:03:51;;;;;;;;;;;2.80;70.20;;;;;;5053080;28;19921;-74
2024/01/15 03:06:17;;;;;;;;;;;2.90;70.20;;;;;;5052981;28;19992;-73
2024/01/15 03:08:43;;;;;;;;;;;2.90;70.20;;;;;;5051846;28;19921;-73
2024/01/15 03:11:09;;;;;;;;;;;2.90;70.30;;;;;;5051245;28;19921;-73
2024/01/15 03:13:37;;;;;;;;;;;2.90;70.10;;;;;;5052370;28;19943;-73
2024/01/15 03:16:05;;;;;;;;;;;3.00;70.00;;;;;;5034927;28;20350;-74
2024/01/15 03:18:31;;;;;;;;;;;3.00;70.00;;;;;;5051715;28;19927;-74
2024/01/15 03:20:57;;;;;;;;;;;3.00;70.80;;;;;;5052836;28;20373;-74
2024/01/15 03:23:22;;;;;;;;;;;3.00;70.40;;;;;;5051250;28;20015;-73
2024/01/15 03:25:49;;;;;;;;;;;3.00;70.20;;;;;;5051648;28;19921;-73
2024/01/15 03:28:14;;;;;;;;;;;3.10;70.30;;;;;;5052687;28;19920;-73
2024/01/15 03:30:40;;;;;;;;;;;3.00;70.90;;;;;;5050965;28;19947;-74
2024/01/15 03:33:06;;;;;;;;;;;3.00;70.70;;;;;;5051376;28;19931;-73
2024/01/15 03:35:32;;;;;;;;;;;3.00;70.40;;;;;;5051105;28;20281;-73
2024/01/15 03:37:58;;;;;;;;;;;3.00;70.20;;;;;;5052920;28;19927;-74
2024/01/15 03:40:24;;;;;;;;;;;3.10;71.10;;;;;;5051876;28;19925;-74
2024/01/15 03:42:50;;;;;;;;;;;3.00;70.30;;;;;;5051507;28;20350;-73
2024/01/15 03:45:16;;;;;;;;;;;3.00;70.40;;;;;;5051108;28;19917;-74
2024/01/15 03:47:41;;;;;;;;;;;3.00;70.30;;;;;;5051375;28;19923;-74
2024/01/15 03:50:08;;;;;;;;;;;3.00;70.30;;;;;;5050591;28;20431;-73
2024/01/15 03:52:34;;;;;;;;;;;3.00;69.80;;;;;;5050900;28;19956;-73
2024/01/15 03:55:00;;;;;;;;;;;3.00;70.30;;;;;;5052235;28;19927;-74
2024/01/15 03:57:26;;;;;;;;;;;3.00;70.20;;;;;;5052011;28;19920;-74
2024/01/15 03:59:52;;;;;;;;;;;3.00;70.30;;;;;;5050961;28;19921;-73
2024/01/15 04:02:18;;;;;;;;;;;3.00;69.60;;;;;;5050433;28;19920;-74
2024/01/15 04:04:44;;;;;;;;;;;3.00;70.20;;;;;;5050600;28;19943;-73
2024/01/15 04:07:10;;;;;;;;;;;3.00;70.20;;;;;;5050842;28;19924;-73
2024/01/15 04:09:36;;;;;;;;;;;3.00;70.30;;;;;;5034142;28;19921;-73
2024/01/15 04:12:02;;;;;;;;;;;3.10;70.30;;;;;;5051938;28;19970;-74
2024/01/15 04:14:28;;;;;;;;;;;3.00;70.30;;;;;;5050969;28;19920;-74
2024/01/15 04:16:54;;;;;;;;;;;3.00;70.50;;;;;;5050368;28;19916;-74
2024/01/15 04:19:20;;;;;;;;;;;3.00;70.90;;;;;;5033373;28;19931;-73
2024/01/15 04:21:46;;;;;;;;;;;3.00;70.80;;;;;;5049626;28;19929;-74
2024/01/15 04:24:12;;;;;;;;;;;3.00;70.80;;;;;;5052180;28;19921;-73
2024/01/15 04:26:38;;;;;;;;;;;3.00;70.70;;;;;;5050336;28;20016;-74
2024/01/15 04:29:03;;;;;;;;;;;3.00;70.50;;;;;;5051597;28;19924;-74
2024/01/15 04:31:29;;;;;;;;;;;3.00;70.50;;;;;;5051389;28;19921;-73
2024/01/15 04:33:55;;;;;;;;;;;3.00;70.50;;;;;;5051796;28;19935;-74
2024/01/15 04:36:21;;;;;;;;;;;3.00;70.30;;;;;;5050404;28;19917;-73
2024/01/15 04:38:47;;;;;;;;;;;3.10;70.40;;;;;;5050370;28;19920;-74
2024/01/15 04:41:14;;;;;;;;;;;3.10;70.50;;;;;;5049411;28;20028;-73
2024/01/15 04:43:40;;;;;;;;;;;3.10;70.20;;;;;;5049902;28;19966;-74
2024/01/15 04:46:07;;;;;;;;;;;3.00;69.90;;;;;;5050026;28;19970;-73
2024/01/15 04:48:33;;;;;;;;;;;3.00;70.20;;;;;;5050416;28;20320;-74
2024/01/15 04:50:59;;;;;;;;;;;3.10;69.60;;;;;;5051020;28;19982;-74
2024/01/15 04:53:25;;;;;;;;;;;3.10;69.60;;;;;;5040965;28;19921;-73
2024/01/15 04:55:51;;;;;;;;;;;3.10;70.20;;;;;;5033458;28;19923;-74
2024/01/15 04:58:17;;;;;;;;;;;3.20;70.10;;;;;;5050045;28;19921;-74
2024/01/15 05:00:43;;;;;;;;;;;3.20;69.90;;;;;;5046483;28;20051;-73
2024/01/15 05:03:09;;;;;;;;;;;3.20;69.80;;;;;;5062630;28;20349;-74
2024/01/15 05:05:35;;;;;;;;;;;3.20;70.20;;;;;;5052958;28;20007;-74
2024/01/15 05:08:01;;;;;;;;;;;3.20;70.40;;;;;;5066679;28;19925;-73
2024/01/15 05:10:26;;;;;;;;;;;3.20;70.60;;;;;;5047739;28;19924;-73
2024/01/15 05:12:52;;;;;;;;;;;3.20;70.60;;;;;;5050915;28;19927;-73
2024/01/15 05:15:18;;;;;;;;;;;3.20;70.50;;;;;;5051352;28;19917;-74
2024/01/15 05:17:44;;;;;;;;;;;3.30;70.50;;;;;;5049402;28;19913;-73
2024/01/15 05:20:10;;;;;;;;;;;3.30;70.50;;;;;;5050548;28;19925;-74
2024/01/15 05:22:36;;;;;;;;;;;3.30;70.30;;;;;;5049606;28;19947;-73
2024/01/15 05:25:02;;;;;;;;;;;3.30;70.30;;;;;;5049808;28;20011;-74
2024/01/15 05:27:28;;;;;;;;;;;3.30;70.10;;;;;;5033076;28;20397;-73
2024/01/15 05:29:54;;;;;;;;;;;3.40;70.00;;;;;;5051314;28;20019;-74
2024/01/15 05:32:20;;;;;;;;;;;3.40;70.00;;;;;;5053234;28;20008;-73
2024/01/15 05:34:46;;;;;;;;;;;3.40;69.90;;;;;;5053668;28;20392;-74
2024/01/15 05:37:12;;;;;;;;;;;3.40;69.70;;;;;;5053263;28;20003;-73
2024/01/15 05:39:38;;;;;;;;;;;3.50;69.70;;;;;;5053602;28;19924;-73
2024/01/15 05:42:04;;;;;;;;;;;3.50;69.70;;;;;;5053940;28;19920;-74
2024/01/15 05:44:30;;;;;;;;;;;3.50;69.20;;;;;;5053761;28;19924;-74
2024/01/15 05:46:56;;;;;;;;;;;3.50;69.90;;;;;;5036808;28;19927;-74
2024/01/15 05:49:22;;;;;;;;;;;3.60;69.80;;;;;;5055258;28;20240;-73
2024/01/15 05:51:48;;;;;;;;;;;3.60;69.80;;;;;;5053022;28;19974;-73
2024/01/15 05:54:14;;;;;;;;;;;3.60;70.30;;;;;;5053025;28;19928;-74
2024/01/15 05:56:40;;;;;;;;;;;3.50;70.70;;;;;;5036755;28;19955;-73
2024/01/15 05:59:05;;;;;;;;;;;3.50;70.70;;;;;;5035799;28;19921;-73
2024/01/15 06:01:31;;;;;;;;;;;3.50;70.30;;;;;;5054401;28;19920;-74
2024/01/15 06:03:57;;;;;;;;;;;3.60;70.20;;;;;;5053023;28;19964;-73
2024/01/15 06:06:23;;;;;;;;;;;3.60;70.20;;;;;;5052992;28;20415;-73
2024/01/15 06:08:49;;;;;;;;;;;3.60;70.20;;;;;;5054709;28;20322;-73
2024/01/15 06:11:15;;;;;;;;;;;3.60;70.40;;;;;;5053423;28;19996;-73
2024/01/15 06:13:41;;;;;;;;;;;3.60;70.50;;;;;;5053137;28;20003;-75
2024/01/15 06:16:28;;;;;;;;;;;3.60;70.40;;;;;;5053790;28;19923;-73
2024/01/15 06:18:54;;;;;;;;;;;3.60;70.30;;;;;;5054697;28;20408;-73
2024/01/15 06:21:20;;;;;;;;;;;3.60;70.50;;;;;;5052169;28;19968;-73
2024/01/15 06:23:46;;;;;;;;;;;3.60;70.40;;;;;;5052614;28;20012;-72
2024/01/15 06:26:12;;;;;;;;;;;3.60;70.50;;;;;;5052886;28;20293;-74
2024/01/15 06:28:38;;;;;;;;;;;3.60;70.50;;;;;;5053850;28;20400;-73
2024/01/15 06:31:05;;;;;;;;;;;3.60;70.70;;;;;;5052052;28;19921;-74
2024/01/15 06:33:31;;;;;;;;;;;3.60;70.50;;;;;;5054307;28;20285;-73
2024/01/15 06:35:57;;;;;;;;;;;3.60;70.70;;;;;;5052523;28;20023;-73
2024/01/15 06:38:24;;;;;;;;;;;3.60;70.40;;;;;;5052452;28;20008;-74
2024/01/15 06:40:51;;;;;;;;;;;3.60;70.30;;;;;;5051821;28;19936;-73
2024/01/15 06:43:18;;;;;;;;;;;3.70;70.10;;;;;;5051588;28;19944;-73
2024/01/15 06:45:44;;;;;;;;;;;3.70;69.90;;;;;;5052286;28;19928;-73
2024/01/15 06:48:12;;;;;;;;;;;3.70;69.90;;;;;;5052152;28;19967;-74
2024/01/15 06:50:38;;;;;;;;;;;3.70;70.20;;;;;;5053254;28;19960;-74
2024/01/15 06:53:04;;;;;;;;;;;3.70;70.40;;;;;;5052353;28;19921;-73
2024/01/15 06:55:30;;;;;;;;;;;3.70;70.60;;;;;;5051777;28;20145;-73
2024/01/15 06:57:56;;;;;;;;;;;3.70;70.60;;;;;;5053754;28;19928;-73
2024/01/15 07:00:22;;;;;;;;;;;3.70;70.50;;;;;;5051252;28;19960;-73
2024/01/15 07:02:48;;;;;;;;;;;3.70;70.50;;;;;;5052248;28;19963;-73
2024/01/15 07:05:13;;;;;;;;;;;3.70;70.80;;;;;;5051560;28;20014;-73
2024/01/15 07:07:39;;;;;;;;;;;3.80;70.60;;;;;;5035271;28;19917;-73
2024/01/15 07:10:06;;;;;;;;;;;3.80;70.70;;;;;;5052771;28;20000;-74
2024/01/15 07:12:32;;;;;;;;;;;3.80;70.80;;;;;;5034879;28;20011;-74
2024/01/15 07:14:58;;;;;;;;;;;3.80;71.30;;;;;;5051983;28;19920;-73
2024/01/15 07:17:24;;;;;;;;;;;3.80;71.20;;;;;;5051336;28;19924;-73
2024/01/15 07:19:50;;;;;;;;;;;3.80;71.20;;;;;;5053698;28;20345;-75
2024/01/15 07:22:17;;;;;;;;;;;3.90;70.80;;;;;;5052720;28;19920;-73
2024/01/15 07:24:43;;;;;;;;;;;4.00;70.70;;;;;;5051273;28;20301;-74
2024/01/15 07:27:09;;;;;;;;;;;4.00;70.40;;;;;;5051867;28;19917;-74
2024/01/15 07:29:38;;;;;;;;;;;4.00;70.30;;;;;;5052843;28;19921;-75
2024/01/15 07:32:05;;;;;;;;;;;4.00;69.60;;;;;;5052435;28;20347;-74
2024/01/15 07:34:31;;;;;;;;;;;4.00;70.00;;;;;;5051381;28;19924;-74
2024/01/15 07:36:58;;;;;;;;;;;4.10;70.60;;;;;;5052857;28;20475;-74
2024/01/15 07:39:25;;;;;;;;;;;4.10;70.40;;;;;;5052914;28;19920;-73
2024/01/15 07:41:51;;;;;;;;;;;4.10;70.60;;;;;;5050665;28;20023;-73
2024/01/15 07:44:17;;;;;;;;;;;4.20;70.20;;;;;;5052841;28;19921;-73
2024/01/15 07:47:01;;;;;;;;;;;4.30;70.40;;;;;;5051134;28;20305;-73
2024/01/15 07:49:27;;;;;;;;;;;4.40;69.90;;;;;;5051254;28;19924;-73
2024/01/15 07:51:53;;;;;;;;;;;4.40;69.80;;;;;;5052125;28;20019;-74
2024/01/15 07:54:19;;;;;;;;;;;4.50;69.60;;;;;;5050976;28;20348;-74
2024/01/15 07:57:04;;;;;;;;;;;4.60;69.90;;;;;;5050793;28;20011;-73
2024/01/15 07:59:29;;;;;;;;;;;4.60;69.60;;;;;;5050493;28;19943;-73
2024/01/15 08:01:55;;;;;;;;;;;4.80;69.70;;;;;;5050148;28;19920;-74
2024/01/15 08:04:21;;;;;;;;;;;4.80;69.60;;;;;;5051094;28;20016;-74
2024/01/15 08:06:47;;;;;;;;;;;4.80;69.40;;;;;;5050462;28;19916;-75
2024/01/15 08:09:13;;;;;;;;;;;4.80;69.50;;;;;;5050991;28;19967;-74
2024/01/15 08:14:25;;;;;;;;;;;4.80;69.70;;;;;;5051086;28;20296;-73
2024/01/15 08:16:51;;;;;;;;;;;4.90;69.90;;;;;;5051676;28;19917;-73
2024/01/15 08:19:17;;;;;;;;;;;4.90;70.30;;;;;;5067495;28;20345;-73
2024/01/15 08:21:43;;;;;;;;;;;4.90;70.40;;;;;;5049836;28;20281;-73
2024/01/15 08:24:09;;;;;;;;;;;4.90;70.30;;;;;;5051950;28;20003;-74
2024/01/15 08:26:35;;;;;;;;;;;4.90;70.30;;;;;;5033803;28;19999;-74
2024/01/15 08:29:01;;;;;;;;;;;5.00;70.20;;;;;;5050340;28;19939;-73
2024/01/15 08:31:27;;;;;;;;;;;5.00;69.60;;;;;;5049752;28;19928;-73
2024/01/15 08:33:53;;;;;;;;;;;5.00;70.10;;;;;;5050440;28;19974;-74
2024/01/15 08:36:19;;;;;;;;;;;5.00;70.50;;;;;;5050137;28;19916;-74
2024/01/15 08:38:45;;;;;;;;;;;5.10;70.50;;;;;;5050185;28;19935;-74
2024/01/15 08:41:11;;;;;;;;;;;5.10;70.50;;;;;;5032818;28;19924;-74
2024/01/15 08:43:37;;;;;;;;;;;5.10;71.40;;;;;;5033739;28;19977;-73
2024/01/15 08:46:03;;;;;;;;;;;5.10;71.50;;;;;;5051350;28;19924;-73
2024/01/15 08:48:29;;;;;;;;;;;5.10;71.80;;;;;;5049856;28;19928;-73
2024/01/15 08:50:56;;;;;;;;;;;5.10;72.20;;;;;;5049561;28;20049;-73
2024/01/15 08:53:22;;;;;;;;;;;5.10;71.70;;;;;;5049875;28;20401;-74
2024/01/15 08:55:49;;;;;;;;;;;5.20;72.10;;;;;;5050102;28;19923;-73
2024/01/15 08:58:15;;;;;;;;;;;5.20;72.00;;;;;;5033465;28;20428;-74
2024/01/15 09:00:40;;;;;;;;;;;5.20;71.90;;;;;;5049151;28;19924;-74
2024/01/15 09:03:08;;;;;;;;;;;5.30;71.80;;;;;;5050959;28;19927;-74
2024/01/15 09:05:34;;;;;;;;;;;5.30;71.50;;;;;;5050472;28;20552;-73
2024/01/15 09:08:00;;;;;;;;;;;5.30;70.70;;;;;;5049919;28;19925;-73
2024/01/15 09:10:26;;;;;;;;;;;5.40;70.80;;;;;;5049405;28;20011;-73
2024/01/15 09:12:51;;;;;;;;;;;5.50;71.00;;;;;;5050962;28;19921;-73
2024/01/15 09:15:17;;;;;;;;;;;5.60;71.10;;;;;;5050856;28;19917;-74
2024/01/15 09:17:43;;;;;;;;;;;5.70;71.00;;;;;;5049709;28;19912;-74
2024/01/15 09:20:10;;;;;;;;;;;5.80;71.50;;;;;;5050408;28;19935;-73
2024/01/15 09:22:41;;;;;;;;;;;5.90;71.00;;;;;;5049793;28;20285;-73
2024/01/15 09:25:08;;;;;;;;;;;5.90;70.80;;;;;;5049359;28;19916;-73
2024/01/15 09:27:34;;;;;;;;;;;5.90;71.30;;;;;;5051080;28;19983;-74
2024/01/15 09:30:00;;;;;;;;;;;5.90;71.90;;;;;;5049541;28;19920;-73
2024/01/15 09:32:26;;;;;;;;;;;5.90;72.10;;;;;;5049109;28;20023;-74
2024/01/15 09:34:52;;;;;;;;;;;5.90;72.60;;;;;;5049759;28;20024;-74
2024/01/15 09:37:18;;;;;;;;;;;5.90;73.10;;;;;;5040361;28;20004;-73
2024/01/15 09:39:44;;;;;;;;;;;5.90;72.90;;;;;;5049988;28;19960;-73
2024/01/15 09:42:10;;;;;;;;;;;5.90;73.20;;;;;;5048481;28;20037;-73
2024/01/15 09:44:36;;;;;;;;;;;5.90;72.80;;;;;;5033285;28;19931;-73
2024/01/15 09:47:04;;;;;;;;;;;6.00;73.00;;;;;;5049401;28;19920;-73
2024/01/15 09:49:30;;;;;;;;;;;6.10;72.80;;;;;;5042642;28;20393;-74
2024/01/15 09:51:57;;;;;;;;;;;6.10;72.60;;;;;;5032460;28;20010;-74
2024/01/15 09:54:23;;;;;;;;;;;6.10;72.80;;;;;;5039968;28;19924;-74
2024/01/15 09:56:49;;;;;;;;;;;6.10;72.50;;;;;;5049578;28;20369;-74
2024/01/15 09:59:34;;;;;;;;;;;6.20;72.30;;;;;;5050337;28;19928;-74
2024/01/15 10:02:00;;;;;;;;;;;6.20;71.90;;;;;;5049215;28;19931;-74
2024/01/15 10:04:26;;;;;;;;;;;6.20;72.00;;;;;;5042536;28;19975;-74
2024/01/15 10:06:53;;;;;;;;;;;6.20;73.40;;;;;;5049128;28;19916;-74
2024/01/15 10:09:19;;;;;;;;;;;6.20;73.90;;;;;;5049388;28;20309;-73
2024/01/15 10:11:45;;;;;;;;;;;6.30;74.40;;;;;;5050107;28;19963;-73
2024/01/15 10:16:57;;;;;;;;;;;6.30;73.60;;;;;;5051815;28;19947;-73
2024/01/15 10:19:23;;;;;;;;;;;6.40;73.50;;;;;;5052661;28;19944;-74
2024/01/15 10:21:49;;;;;;;;;;;6.40;73.20;;;;;;5052466;28;20437;-73
2024/01/15 10:24:15;;;;;;;;;;;6.50;73.50;;;;;;5052587;28;20003;-74
2024/01/15 10:26:41;;;;;;;;;;;6.50;73.40;;;;;;5052841;28;19927;-73
2024/01/15 10:29:06;;;;;;;;;;;6.60;73.30;;;;;;5054240;28;19920;-73
2024/01/15 10:31:32;;;;;;;;;;;6.60;73.50;;;;;;5051811;28;20007;-73
2024/01/15 10:34:17;;;;;;;;;;;6.60;72.70;;;;;;5052650;28;19925;-73
2024/01/15 10:36:47;;;;;;;;;;;6.60;73.10;;;;;;5045359;28;20016;-73
2024/01/15 10:39:13;;;;;;;;;;;6.70;72.90;;;;;;5036230;28;19920;-73
2024/01/15 10:41:39;;;;;;;;;;;6.60;74.00;;;;;;5051949;28;19928;-72
2024/01/15 10:44:05;;;;;;;;;;;6.60;74.80;;;;;;5053978;28;20016;-73
2024/01/15 10:46:32;;;;;;;;;;;6.60;74.60;;;;;;5035783;28;20363;-73
2024/01/15 10:48:58;;;;;;;;;;;6.60;74.30;;;;;;5035739;28;19920;-73
2024/01/15 10:51:25;;;;;;;;;;;6.70;74.40;;;;;;5051707;28;19970;-73
2024/01/15 10:53:53;;;;;;;;;;;6.60;73.70;;;;;;5052266;28;20015;-73
2024/01/15 10:56:19;;;;;;;;;;;6.60;74.20;;;;;;5068631;28;20322;-73
2024/01/15 10:58:45;;;;;;;;;;;6.60;74.30;;;;;;5053846;28;20371;-73
2024/01/15 11:01:12;;;;;;;;;;;6.60;74.30;;;;;;5051574;28;19978;-73
2024/01/15 11:03:38;;;;;;;;;;;6.50;74.40;;;;;;5051986;28;19925;-72
2024/01/15 11:06:17;;;;;;;;;;;6.50;73.90;;;;;;5051806;28;20431;-73
2024/01/15 11:08:43;;;;;;;;;;;6.50;74.20;;;;;;5051958;28;20297;-73
2024/01/15 11:11:09;;;;;;;;;;;6.50;73.60;;;;;;5051580;28;19963;-73
2024/01/15 11:13:54;;;;;;;;;;;6.50;74.20;;;;;;5051586;28;19920;-72
2024/01/15 11:16:20;;;;;;;;;;;6.50;74.00;;;;;;5052017;28;19966;-72
2024/01/15 11:19:06;;;;;;;;;;;6.60;74.00;;;;;;5051599;28;20382;-72
2024/01/15 11:21:32;;;;;;;;;;;6.60;73.50;;;;;;5034748;28;19943;-73
2024/01/15 11:24:00;;;;;;;;;;;6.60;73.60;;;;;;5051545;28;20569;-72
2024/01/15 11:26:51;;;;;;;;;;;6.60;73.50;;;;;;5052907;28;19971;-72
2024/01/15 11:29:36;;;;;;;;;;;6.70;73.50;;;;;;5047756;28;19924;-71
2024/01/15 11:32:04;;;;;;;;;;;6.60;73.70;;;;;;5044477;28;19920;-73
2024/01/15 11:35:08;;;;;;;;;;;6.60;73.70;;;;;;5052899;28;19921;-73
2024/01/15 11:40:39;;;;;;;;;;;6.50;74.10;;;;;;5052184;28;20331;-71
2024/01/15 11:43:06;;;;;;;;;;;6.50;74.50;;;;;;5052293;28;20250;-73
2024/01/15 11:45:33;;;;;;;;;;;6.40;74.30;;;;;;5034566;28;19924;-73
2024/01/15 11:48:18;;;;;;;;;;;6.40;74.40;;;;;;5051226;28;19921;-72
2024/01/15 11:50:45;;;;;;;;;;;6.50;74.60;;;;;;5051964;28;19921;-72
2024/01/15 11:53:49;;;;;;;;;;;6.40;74.60;;;;;;5051176;28;19924;-72
2024/01/15 11:56:19;;;;;;;;;;;6.40;74.70;;;;;;5046586;28;19916;-73
2024/01/15 11:58:45;;;;;;;;;;;6.30;74.80;;;;;;5050771;28;19921;-72
2024/01/15 12:01:11;;;;;;;;;;;6.30;74.90;;;;;;5033721;28;19925;-72
2024/01/15 12:03:37;;;;;;;;;;;6.20;74.70;;;;;;5034277;28;20385;-73
2024/01/15 12:06:23;;;;;;;;;;;6.20;74.90;;;;;;5050804;28;19916;-71
2024/01/15 12:08:49;;;;;;;;;;;6.20;74.60;;;;;;5052496;28;20405;-72
2024/01/15 12:11:17;;;;;;;;;;;6.20;74.90;;;;;;5050373;28;19927;-72
2024/01/15 12:13:43;;;;;;;;;;;6.20;74.90;;;;;;5050445;28;19921;-72
2024/01/15 12:16:08;;;;;;;;;;;6.20;75.30;;;;;;5052061;28;19924;-73
2024/01/15 12:18:34;;;;;;;;;;;6.20;75.40;;;;;;5050591;28;19924;-73
2024/01/15 12:21:00;;;;;;;;;;;6.10;75.40;;;;;;5050152;28;19928;-71
2024/01/15 12:23:27;;;;;;;;;;;6.10;75.70;;;;;;5050553;28;19928;-72
2024/01/15 12:25:53;;;;;;;;;;;6.00;75.70;;;;;;5051736;28;19923;-72
2024/01/15 12:28:19;;;;;;;;;;;6.00;75.80;;;;;;5050873;28;19924;-71
2024/01/15 12:30:49;;;;;;;;;;;6.00;75.80;;;;;;5051109;28;19924;-73
2024/01/15 12:33:14;;;;;;;;;;;5.90;75.90;;;;;;5050667;28;19963;-72
2024/01/15 12:35:40;;;;;;;;;;;5.90;76.30;;;;;;5050544;28;20362;-73
2024/01/15 12:38:06;;;;;;;;;;;5.90;76.30;;;;;;5051366;28;20015;-71
2024/01/15 12:40:34;;;;;;;;;;;5.90;76.40;;;;;;5049349;28;19927;-72
2024/01/15 12:43:00;;;;;;;;;;;5.90;76.40;;;;;;5049848;28;19920;-72
2024/01/15 12:45:26;;;;;;;;;;;5.90;76.00;;;;;;5050275;28;20304;-73
2024/01/15 12:47:52;;;;;;;;;;;5.90;75.90;;;;;;5033505;28;19963;-73
2024/01/15 12:50:18;;;;;;;;;;;5.90;76.40;;;;;;5049484;28;20019;-72
2024/01/15 12:52:44;;;;;;;;;;;5.90;76.70;;;;;;5050212;28;20023;-71
2024/01/15 12:55:11;;;;;;;;;;;5.80;76.70;;;;;;5049365;28;19929;-72
2024/01/15 12:57:37;;;;;;;;;;;5.80;76.70;;;;;;5050254;28;19943;-72
2024/01/15 13:02:49;;;;;;;;;;;5.70;76.90;;;;;;5064365;28;20021;-71
2024/01/15 13:05:16;;;;;;;;;;;5.70;77.20;;;;;;5049851;28;19939;-73
2024/01/15 13:07:43;;;;;;;;;;;5.60;77.20;;;;;;5033164;28;20039;-71
2024/01/15 13:10:09;;;;;;;;;;;5.50;77.60;;;;;;5050679;28;20050;-73
2024/01/15 13:12:35;;;;;;;;;;;5.60;77.70;;;;;;5049960;28;19970;-72
2024/01/15 13:15:03;;;;;;;;;;;5.50;78.00;;;;;;5049651;28;19940;-72
2024/01/15 13:17:29;;;;;;;;;;;5.50;77.70;;;;;;5049926;28;19924;-72
2024/01/15 13:19:55;;;;;;;;;;;5.50;78.00;;;;;;5049641;28;19916;-72
2024/01/15 13:22:21;;;;;;;;;;;5.50;77.70;;;;;;5032325;28;19970;-73
2024/01/15 13:24:47;;;;;;;;;;;5.50;77.50;;;;;;5049893;28;19920;-71
2024/01/15 13:27:13;;;;;;;;;;;5.50;77.20;;;;;;5049379;28;19921;-73
2024/01/15 13:29:39;;;;;;;;;;;5.50;77.30;;;;;;5050121;28;20025;-71
2024/01/15 13:32:05;;;;;;;;;;;5.40;77.20;;;;;;5049150;28;19927;-71
2024/01/15 13:34:31;;;;;;;;;;;5.40;77.10;;;;;;5049864;28;20381;-71
2024/01/15 13:36:57;;;;;;;;;;;5.40;76.90;;;;;;5050835;28;19962;-73
2024/01/15 13:39:23;;;;;;;;;;;5.30;77.20;;;;;;5049640;28;20313;-73
2024/01/15 13:41:49;;;;;;;;;;;5.30;77.30;;;;;;5049368;28;19954;-73
2024/01/15 13:44:15;;;;;;;;;;;5.20;76.80;;;;;;5032486;28;19921;-73
2024/01/15 13:46:41;;;;;;;;;;;5.20;77.20;;;;;;5049788;28;19974;-73
2024/01/15 13:49:09;;;;;;;;;;;5.20;77.00;;;;;;5049374;28;19927;-73
2024/01/15 13:51:36;;;;;;;;;;;5.20;77.80;;;;;;5051279;28;19927;-73
2024/01/15 13:54:04;;;;;;;;;;;5.20;76.70;;;;;;5053590;28;20262;-71
2024/01/15 13:56:32;;;;;;;;;;;5.10;76.40;;;;;;5054301;28;20004;-71
2024/01/15 13:58:59;;;;;;;;;;;5.10;76.00;;;;;;5053295;28;19924;-71
2024/01/15 14:01:25;;;;;;;;;;;5.00;76.30;;;;;;5054198;28;19959;-72
2024/01/15 14:03:51;;;;;;;;;;;5.10;76.10;;;;;;5054720;28;19940;-73
2024/01/15 14:06:17;;;;;;;;;;;5.00;76.10;;;;;;5036035;28;19921;-72
2024/01/15 14:08:42;;;;;;;;;;;5.00;76.00;;;;;;5054794;28;19921;-72
2024/01/15 14:11:10;;;;;;;;;;;5.00;76.00;;;;;;5053994;28;20304;-73
2024/01/15 14:13:35;;;;;;;;;;;5.00;76.00;;;;;;5052739;28;20420;-72
2024/01/15 14:16:01;;;;;;;;;;;5.00;75.90;;;;;;5053051;28;19916;-73
2024/01/15 14:18:28;;;;;;;;;;;5.00;75.70;;;;;;5052625;28;19927;-71
2024/01/15 14:20:54;;;;;;;;;;;4.90;75.30;;;;;;5053964;28;20405;-72
2024/01/15 14:23:20;;;;;;;;;;;4.90;76.00;;;;;;5052781;28;19947;-73
2024/01/15 14:25:46;;;;;;;;;;;4.80;75.80;;;;;;5052789;28;19923;-73
2024/01/15 14:28:12;;;;;;;;;;;4.80;76.10;;;;;;5052875;28;19921;-73
2024/01/15 14:30:38;;;;;;;;;;;4.80;76.20;;;;;;5051844;28;20492;-73
2024/01/15 14:33:04;;;;;;;;;;;4.80;76.10;;;;;;5053998;28;19931;-71
2024/01/15 14:35:30;;;;;;;;;;;4.80;76.10;;;;;;5052954;28;20500;-72
2024/01/15 14:37:58;;;;;;;;;;;4.70;75.80;;;;;;5052358;28;20431;-72
2024/01/15 14:40:25;;;;;;;;;;;4.70;75.80;;;;;;5035582;28;20381;-71